Ctr Moriches, New York
Current Conditions -  °F | °C
As of 4:53 PM on Monday 20 Oct 2014 (Local Time) from KFOK Reporting Station
Clear Clear  
Wind Chill: 58°   Ceiling: Unl
Heat Index: 58°   Visibility: 10mi
Dew Point: 41°   Wind: 10mph
Humidity: 53%   Direction: 230°SW
Pressure: 30.02"   Gusts: 18mph
Location:  40.8046°N, 72.7931°W
Report Text: KFOK 202053Z AUTO 23009G16KT 10SM CLR 14/05 A3002 RMK AO2 SLP166 T01440050 58016 TSNO
Loading
Personal Weather Stations






























Interactive Weather Map
Tropical Storm Tracking
New forecast layout! Learn more

10-Day Weather Forecast

Advertisements
Track Severe Weather on mobile